createdAt,value
2022-09-24T00:03:09.110Z,10.38
2022-09-24T00:08:11.408Z,10.28
2022-09-24T00:13:18.286Z,10.23
2022-09-24T00:18:21.912Z,10.19
2022-09-24T00:23:23.650Z,10.09
2022-09-24T00:28:25.250Z,10.07
2022-09-24T00:33:31.404Z,10.08
2022-09-24T00:38:33.593Z,10.08
2022-09-24T00:43:37.817Z,10.10
2022-09-24T00:48:41.044Z,10.10
2022-09-24T00:53:46.086Z,10.07
2022-09-24T00:58:56.255Z,10.08
2022-09-24T01:04:00.610Z,10.09
2022-09-24T01:09:02.480Z,10.05
2022-09-24T01:14:19.851Z,10.06
2022-09-24T01:19:30.913Z,10.09
2022-09-24T01:25:07.837Z,10.08
2022-09-24T01:30:12.049Z,10.10
2022-09-24T01:35:26.460Z,10.09
2022-09-24T01:40:30.277Z,10.08
2022-09-24T01:45:33.190Z,10.04
2022-09-24T01:50:44.773Z,10.05
2022-09-24T01:55:50.305Z,10.08
2022-09-24T02:00:56.195Z,10.07
2022-09-24T02:06:08.720Z,10.12
2022-09-24T02:11:14.740Z,10.12
2022-09-24T02:16:21.722Z,10.12
2022-09-24T02:21:25.859Z,10.09
2022-09-24T02:26:27.595Z,10.10
2022-09-24T02:31:37.278Z,10.09
2022-09-24T02:36:39.821Z,10.12
2022-09-24T02:41:47.157Z,10.09
2022-09-24T02:46:50.365Z,10.11
2022-09-24T02:51:52.210Z,10.14
2022-09-24T02:56:54.305Z,10.15
2022-09-24T03:01:56.070Z,10.18
2022-09-24T03:06:57.755Z,10.18
2022-09-24T03:12:00.619Z,10.17
2022-09-24T03:17:02.264Z,10.18
2022-09-24T03:22:03.938Z,10.21
2022-09-24T03:27:05.553Z,10.23
2022-09-24T03:32:07.208Z,10.24
2022-09-24T03:37:08.734Z,10.32
2022-09-24T03:42:10.669Z,10.33
2022-09-24T03:47:12.506Z,10.26
2022-09-24T03:52:14.198Z,10.24
2022-09-24T03:57:15.794Z,10.22
2022-09-24T04:02:17.401Z,10.16
2022-09-24T04:07:19.155Z,10.17
2022-09-24T04:12:20.848Z,10.15
2022-09-24T04:17:22.455Z,10.12
2022-09-24T04:22:26.083Z,10.12
2022-09-24T04:27:28.090Z,10.16
2022-09-24T04:32:29.675Z,10.21
2022-09-24T04:37:31.385Z,10.22
2022-09-24T04:42:33.188Z,10.18
2022-09-24T04:47:35.724Z,10.12
2022-09-24T04:52:39.139Z,10.07
2022-09-24T04:57:41.341Z,9.98
2022-09-24T05:02:44.067Z,9.99
2022-09-24T05:07:45.946Z,9.93
2022-09-24T05:12:47.564Z,9.92
2022-09-24T05:17:49.414Z,9.88
2022-09-24T05:22:51.357Z,9.84
2022-09-24T05:27:54.958Z,9.88
2022-09-24T05:32:56.638Z,9.86
2022-09-24T05:37:58.213Z,9.89
2022-09-24T05:43:04.147Z,9.93
2022-09-24T05:48:05.891Z,9.99
2022-09-24T05:53:07.620Z,10.05
2022-09-24T05:58:10.807Z,10.11
2022-09-24T06:03:17.212Z,10.18
2022-09-24T06:08:20.344Z,10.26
2022-09-24T06:13:22.663Z,10.38
2022-09-24T06:18:24.570Z,10.50
2022-09-24T06:23:26.227Z,10.64
2022-09-24T06:28:27.892Z,10.73
2022-09-24T06:33:30.729Z,10.87
2022-09-24T06:38:32.880Z,10.99
2022-09-24T06:43:34.770Z,11.10
2022-09-24T06:48:38.137Z,11.23
2022-09-24T06:53:39.734Z,11.30
2022-09-24T06:58:41.447Z,11.42
2022-09-24T07:03:43.078Z,11.56
2022-09-24T07:08:44.842Z,11.71
2022-09-24T07:13:46.534Z,11.87
2022-09-24T07:18:48.174Z,11.92
2022-09-24T07:23:49.938Z,12.08
2022-09-24T07:28:51.598Z,12.28
2022-09-24T07:33:53.449Z,12.44
2022-09-24T07:38:55.012Z,12.60
2022-09-24T07:43:56.585Z,12.76
2022-09-24T07:48:58.239Z,12.89
2022-09-24T07:53:59.921Z,13.06
2022-09-24T07:59:01.850Z,13.13
2022-09-24T08:04:04.695Z,13.12
2022-09-24T08:09:06.947Z,13.13
2022-09-24T08:14:08.707Z,13.20
2022-09-24T08:19:14.095Z,13.18
2022-09-24T08:24:15.987Z,13.28
2022-09-24T08:29:18.218Z,13.42
2022-09-24T08:34:19.828Z,13.68
2022-09-24T08:39:21.441Z,13.81
2022-09-24T08:44:58.173Z,13.77
2022-09-24T08:50:09.867Z,13.97
2022-09-24T08:55:18.063Z,14.24
2022-09-24T09:00:19.863Z,14.35
2022-09-24T09:05:40.412Z,14.22
2022-09-24T09:10:43.457Z,14.08
2022-09-24T09:16:04.064Z,14.27
2022-09-24T09:21:27.114Z,14.61
2022-09-24T09:26:28.903Z,14.90
2022-09-24T09:31:46.176Z,14.99
2022-09-24T09:37:06.675Z,15.16
2022-09-24T09:42:23.864Z,15.28
2022-09-24T09:47:43.108Z,15.25
2022-09-24T09:52:44.825Z,15.42
2022-09-24T09:57:47.815Z,15.47
2022-09-24T10:02:53.686Z,15.10
2022-09-24T10:07:59.376Z,15.07
2022-09-24T10:13:12.996Z,14.73
2022-09-24T10:18:15.412Z,14.80
2022-09-24T10:23:32.568Z,14.98
2022-09-24T10:28:57.871Z,14.84
2022-09-24T10:34:01.674Z,14.79
2022-09-24T10:39:03.356Z,14.84
2022-09-24T10:44:11.934Z,15.03
2022-09-24T10:49:41.928Z,15.16
2022-09-24T10:55:00.159Z,14.98
2022-09-24T11:00:02.298Z,14.96
2022-09-24T11:05:21.620Z,14.83
2022-09-24T11:10:45.625Z,15.05
2022-09-24T11:16:12.496Z,15.26
2022-09-24T11:21:31.776Z,15.40
2022-09-24T11:27:04.939Z,15.37
2022-09-24T11:32:30.138Z,15.36
2022-09-24T11:37:39.426Z,15.14
2022-09-24T11:43:09.369Z,15.26
2022-09-24T11:48:30.094Z,15.17
2022-09-24T11:53:39.863Z,15.19
2022-09-24T11:58:51.775Z,15.29
2022-09-24T12:04:16.741Z,15.32
2022-09-24T12:09:26.487Z,14.97
2022-09-24T12:14:31.976Z,14.80
2022-09-24T12:19:42.032Z,14.87
2022-09-24T12:24:50.687Z,14.89
2022-09-24T12:30:33.596Z,14.84
2022-09-24T12:36:05.366Z,14.57
2022-09-24T12:41:25.996Z,14.00
2022-09-24T12:46:31.611Z,14.15
2022-09-24T12:51:39.372Z,14.37
2022-09-24T12:56:41.227Z,14.50
2022-09-24T13:01:43.164Z,14.32
2022-09-24T13:06:48.148Z,14.03
2022-09-24T13:12:05.228Z,14.06
2022-09-24T13:17:07.546Z,13.96
2022-09-24T13:22:29.242Z,14.02
2022-09-24T13:27:30.946Z,13.82
2022-09-24T13:32:38.808Z,13.62
2022-09-24T13:37:43.988Z,13.50
2022-09-24T13:43:07.395Z,13.51
2022-09-24T13:48:33.444Z,13.50
2022-09-24T13:53:39.057Z,13.54
2022-09-24T13:58:42.004Z,13.56
2022-09-24T14:03:55.445Z,13.65
2022-09-24T14:08:57.390Z,13.66
2022-09-24T14:14:11.547Z,13.69
2022-09-24T14:19:14.558Z,13.67
2022-09-24T14:24:19.358Z,13.62
2022-09-24T14:29:45.381Z,13.68
2022-09-24T14:34:53.112Z,13.68
2022-09-24T14:40:02.976Z,13.59
2022-09-24T14:45:07.913Z,13.57
2022-09-24T14:50:27.909Z,13.49
2022-09-24T14:55:38.485Z,13.40
2022-09-24T15:00:50.234Z,13.43
2022-09-24T15:05:52.607Z,13.37
2022-09-24T15:11:04.768Z,13.30
2022-09-24T15:16:28.646Z,13.27
2022-09-24T15:21:30.397Z,13.20
2022-09-24T15:26:34.871Z,13.19
2022-09-24T15:31:37.331Z,13.21
2022-09-24T15:36:40.287Z,13.14
2022-09-24T15:41:42.103Z,13.14
2022-09-24T15:46:43.837Z,13.13
2022-09-24T15:51:45.971Z,13.12
2022-09-24T15:56:52.660Z,13.10
2022-09-24T16:01:58.761Z,13.08
2022-09-24T16:07:00.589Z,13.01
2022-09-24T16:12:02.486Z,13.01
2022-09-24T16:17:04.131Z,12.96
2022-09-24T16:22:05.906Z,12.96
2022-09-24T16:27:08.110Z,12.95
2022-09-24T16:32:10.932Z,12.88
2022-09-24T16:37:14.548Z,12.88
2022-09-24T16:42:16.101Z,12.89
2022-09-24T16:47:18.918Z,12.89
2022-09-24T16:52:20.863Z,12.91
2022-09-24T16:57:22.848Z,12.90
2022-09-24T17:02:24.776Z,12.86
2022-09-24T17:07:26.864Z,12.77
2022-09-24T17:12:28.854Z,12.73
2022-09-24T17:17:31.044Z,12.70
2022-09-24T17:22:33.100Z,12.66
2022-09-24T17:27:35.189Z,12.66
2022-09-24T17:32:36.996Z,12.67
2022-09-24T17:37:38.728Z,12.62
2022-09-24T17:42:45.870Z,12.60
2022-09-24T17:47:56.319Z,12.57
2022-09-24T17:52:59.219Z,12.55
2022-09-24T17:58:01.066Z,12.58
2022-09-24T18:03:02.941Z,12.52
2022-09-24T18:08:06.166Z,12.49
2022-09-24T18:13:08.068Z,12.49
2022-09-24T18:18:09.818Z,12.50
2022-09-24T18:23:11.517Z,12.49
2022-09-24T18:28:18.472Z,12.52
2022-09-24T18:33:20.531Z,12.45
2022-09-24T18:38:22.247Z,12.47
2022-09-24T18:43:23.992Z,12.47
2022-09-24T18:48:25.569Z,12.47
2022-09-24T18:53:28.101Z,12.46
2022-09-24T18:58:29.874Z,12.36
2022-09-24T19:03:32.264Z,12.33
2022-09-24T19:08:35.535Z,12.26
2022-09-24T19:13:39.151Z,12.24
2022-09-24T19:18:41.465Z,12.24
2022-09-24T19:23:51.034Z,12.23
2022-09-24T19:28:53.675Z,12.21
2022-09-24T19:33:55.696Z,12.23
2022-09-24T19:38:58.050Z,12.14
2022-09-24T19:44:05.975Z,12.15
2022-09-24T19:49:10.427Z,12.16
2022-09-24T19:54:12.319Z,12.14
2022-09-24T19:59:14.653Z,12.21
2022-09-24T20:04:16.493Z,12.14
2022-09-24T20:09:18.355Z,12.18
2022-09-24T20:14:21.622Z,12.17
2022-09-24T20:19:23.425Z,12.18
2022-09-24T20:24:25.413Z,12.22
2022-09-24T20:29:27.242Z,12.24
2022-09-24T20:34:46.507Z,12.28
2022-09-24T20:39:48.973Z,12.24
2022-09-24T20:44:50.863Z,12.29
2022-09-24T20:49:52.638Z,12.30
2022-09-24T20:54:54.501Z,12.25
2022-09-24T20:59:56.483Z,12.26
2022-09-24T21:04:58.414Z,12.22
2022-09-24T21:10:00.598Z,12.16
2022-09-24T21:15:02.612Z,12.13
2022-09-24T21:20:04.937Z,12.04
2022-09-24T21:25:06.931Z,12.01
2022-09-24T21:30:09.086Z,11.92
2022-09-24T21:35:11.020Z,11.90
2022-09-24T21:40:13.196Z,11.84
2022-09-24T21:45:15.290Z,11.84
2022-09-24T21:50:17.092Z,11.81
2022-09-24T21:55:18.853Z,11.75
2022-09-24T22:00:22.241Z,11.73
2022-09-24T22:05:24.055Z,11.72
2022-09-24T22:10:25.722Z,11.71
2022-09-24T22:15:28.155Z,11.71
2022-09-24T22:20:29.860Z,11.72
2022-09-24T22:25:32.038Z,11.71
2022-09-24T22:30:33.986Z,11.68
2022-09-24T22:35:49.088Z,11.69
2022-09-24T22:40:52.235Z,11.70
2022-09-24T22:46:01.651Z,11.67
2022-09-24T22:51:05.091Z,11.66
2022-09-24T22:56:19.020Z,11.65
2022-09-24T23:01:25.019Z,11.66
2022-09-24T23:06:27.582Z,11.66
2022-09-24T23:11:32.936Z,11.67
2022-09-24T23:16:36.868Z,11.68
2022-09-24T23:21:39.231Z,11.66
2022-09-24T23:26:41.232Z,11.65
2022-09-24T23:31:43.237Z,11.66
2022-09-24T23:36:46.310Z,11.62
2022-09-24T23:41:48.130Z,11.58
2022-09-24T23:46:50.062Z,11.56
2022-09-24T23:51:52.310Z,11.57
2022-09-24T23:56:54.474Z,11.56
